Tyner, Kentucky
Current Conditions -  °F | °C
As of 8:07 AM on Thursday 27 Nov 2014 (Local Time) from KLOZ Reporting Station
Haze Haze  
Wind Chill: 26°   Ceiling: 1200
Heat Index: 34°   Visibility: 6mi
Dew Point: 30°   Wind: 10mph
Humidity: 85%   Direction: 330°NNW
Pressure: 30.19"   Gusts: NA
Location:  37.35°N, 83.9°W
Report Text: KLOZ 271307Z AUTO 33009KT 6SM BR SCT009 BKN012 OVC019 01/M01 A3019 RMK AO2 T00111011
Loading
Personal Weather Stations






























Interactive Weather Map New forecast layout! Learn more

10-Day Weather Forecast

Advertisements
Track Severe Weather on mobile